createdAt,value
2022-09-11T00:05:02.301Z,98140.96
2022-09-11T00:15:11.077Z,98139.73
2022-09-11T00:25:16.858Z,98133.25
2022-09-11T00:35:24.446Z,98126.58
2022-09-11T00:45:32.400Z,98124.96
2022-09-11T00:55:43.467Z,98122.02
2022-09-11T01:05:52.921Z,98126.34
2022-09-11T01:16:04.074Z,98118.20
2022-09-11T01:26:18.499Z,98116.50
2022-09-11T01:36:27.438Z,98119.48
2022-09-11T01:46:41.285Z,98114.54
2022-09-11T01:56:54.040Z,98113.62
2022-09-11T02:07:07.577Z,98108.89
2022-09-11T02:17:13.029Z,98103.11
2022-09-11T02:27:22.572Z,98105.81
2022-09-11T02:37:34.330Z,98091.13
2022-09-11T02:47:43.090Z,98088.15
2022-09-11T02:57:48.888Z,98085.34
2022-09-11T03:07:55.333Z,98086.13
2022-09-11T03:18:02.340Z,98084.33
2022-09-11T03:28:10.223Z,98077.41
2022-09-11T03:38:17.929Z,98081.98
2022-09-11T03:48:24.544Z,98083.31
2022-09-11T03:58:31.743Z,98086.19
2022-09-11T04:08:41.419Z,98086.39
2022-09-11T04:18:49.289Z,98086.92
2022-09-11T04:28:57.384Z,98089.64
2022-09-11T04:39:05.017Z,98091.93
2022-09-11T04:49:11.241Z,98086.02
2022-09-11T04:59:22.311Z,98081.23
2022-09-11T05:09:29.824Z,98080.88
2022-09-11T05:19:36.950Z,98078.20
2022-09-11T05:29:44.290Z,98080.70
2022-09-11T05:39:52.376Z,98080.13
2022-09-11T05:49:59.655Z,98080.44
2022-09-11T06:00:08.351Z,98081.64
2022-09-11T06:10:15.814Z,98087.31
2022-09-11T06:20:23.694Z,98091.20
2022-09-11T06:30:30.953Z,98096.95
2022-09-11T06:40:38.073Z,98104.80
2022-09-11T06:50:45.674Z,98105.59
2022-09-11T07:00:53.115Z,98109.71
2022-09-11T07:11:02.893Z,98112.34
2022-09-11T07:21:06.853Z,98112.95
2022-09-11T07:31:20.705Z,98112.87
2022-09-11T07:41:31.356Z,98113.33
2022-09-11T07:51:40.573Z,98116.36
2022-09-11T08:01:47.865Z,98121.85
2022-09-11T08:11:58.826Z,98130.90
2022-09-11T08:22:06.389Z,98131.63
2022-09-11T08:32:13.766Z,98136.06
2022-09-11T08:42:21.107Z,98135.77
2022-09-11T08:52:29.096Z,98141.66
2022-09-11T09:02:48.470Z,98142.77
2022-09-11T09:13:02.903Z,98149.30
2022-09-11T09:23:08.203Z,98152.13
2022-09-11T09:33:20.588Z,98152.61
2022-09-11T09:43:34.195Z,98150.06
2022-09-11T09:53:41.245Z,98147.70
2022-09-11T10:04:09.018Z,98148.64
2022-09-11T10:14:49.399Z,98149.52
2022-09-11T10:24:53.472Z,98151.70
2022-09-11T10:35:00.782Z,98149.79
2022-09-11T10:45:08.016Z,98152.11
2022-09-11T10:55:19.027Z,98140.23
2022-09-11T11:05:28.150Z,98136.71
2022-09-11T11:15:39.185Z,98137.72
2022-09-11T11:25:50.769Z,98142.56
2022-09-11T11:35:58.262Z,98141.67
2022-09-11T11:46:13.113Z,98139.28
2022-09-11T11:56:19.331Z,98137.80
2022-09-11T12:06:27.288Z,98140.83
2022-09-11T12:16:34.992Z,98137.94
2022-09-11T12:26:43.129Z,98147.95
2022-09-11T12:36:51.910Z,98165.27
2022-09-11T12:47:16.648Z,98164.71
2022-09-11T12:57:21.689Z,98174.45
2022-09-11T13:07:33.045Z,98177.95
2022-09-11T13:17:42.560Z,98193.98
2022-09-11T13:27:51.126Z,98197.58
2022-09-11T13:38:00.610Z,98197.02
2022-09-11T13:48:13.656Z,98194.63
2022-09-11T13:58:23.017Z,98190.43
2022-09-11T14:08:29.416Z,98189.32
2022-09-11T14:18:42.360Z,98189.54
2022-09-11T14:29:22.029Z,98193.84
2022-09-11T14:39:27.992Z,98199.45
2022-09-11T14:49:35.164Z,98194.02
2022-09-11T14:59:42.462Z,98200.80
2022-09-11T15:09:50.828Z,98198.41
2022-09-11T15:20:00.615Z,98193.91
2022-09-11T15:30:09.680Z,98205.90
2022-09-11T15:40:17.858Z,98215.71
2022-09-11T15:50:29.054Z,98228.11
2022-09-11T16:00:36.564Z,98236.30
2022-09-11T16:10:44.206Z,98239.28
2022-09-11T16:20:57.580Z,98242.38
2022-09-11T16:31:06.405Z,98252.51
2022-09-11T16:41:16.817Z,98254.73
2022-09-11T16:51:24.687Z,98262.66
2022-09-11T17:01:32.307Z,98270.58
2022-09-11T17:11:39.579Z,98273.73
2022-09-11T17:21:46.080Z,98281.30
2022-09-11T17:32:10.640Z,98279.61
2022-09-11T17:42:19.362Z,98297.11
2022-09-11T17:52:27.042Z,98311.25
2022-09-11T18:02:34.933Z,98311.80
2022-09-11T18:12:42.474Z,98318.05
2022-09-11T18:22:50.420Z,98329.60
2022-09-11T18:32:57.530Z,98333.88
2022-09-11T18:43:06.568Z,98338.05
2022-09-11T18:53:15.052Z,98344.85
2022-09-11T19:03:22.838Z,98347.36
2022-09-11T19:13:31.151Z,98343.42
2022-09-11T19:23:40.884Z,98351.09
2022-09-11T19:33:49.095Z,98356.05
2022-09-11T19:44:00.343Z,98356.53
2022-09-11T19:54:05.348Z,98370.88
2022-09-11T20:04:13.749Z,98375.12
2022-09-11T20:14:21.094Z,98375.06
2022-09-11T20:24:28.717Z,98372.91
2022-09-11T20:34:36.165Z,98370.23
2022-09-11T20:44:45.610Z,98374.59
2022-09-11T20:54:51.255Z,98378.30
2022-09-11T21:05:00.533Z,98374.86
2022-09-11T21:15:10.432Z,98373.40
2022-09-11T21:25:17.558Z,98378.04
2022-09-11T21:35:24.867Z,98380.08
2022-09-11T21:45:32.828Z,98381.11
2022-09-11T21:55:38.208Z,98385.36
2022-09-11T22:05:49.220Z,98383.26
2022-09-11T22:15:56.471Z,98378.94
2022-09-11T22:26:07.631Z,98375.68
2022-09-11T22:36:17.716Z,98383.30
2022-09-11T22:46:26.916Z,98390.27
2022-09-11T22:56:34.624Z,98396.77
2022-09-11T23:06:59.479Z,98398.61
2022-09-11T23:17:07.205Z,98397.23
2022-09-11T23:27:14.659Z,98402.52
2022-09-11T23:37:22.927Z,98409.42
2022-09-11T23:47:28.901Z,98416.18
2022-09-11T23:57:36.339Z,98421.53
